Time;durP1;ratioP1;P1;durP2;ratioP2;P2;SDS_P1;SDS_P2;PMS_P1;PMS_P2;Temp;Humidity;BMP_temperature;BMP_pressure;BME280_temperature;BME280_humidity;BME280_pressure;Samples;Min_cycle;Max_cycle;Signal;HPM_P1;HPM_P2
2022/09/23 06:28:05;;;;;;;;;0.00;0.00;;;;;;;;6204386;22;46081;-93
2022/09/23 06:30:30;;;;;;;;;0.00;0.00;;;;;;;;6214900;22;45368;-94
2022/09/23 06:32:56;;;;;;;;;0.00;0.00;;;;;;;;6183760;22;45240;-88
2022/09/23 06:35:24;;;;;;;;;0.00;0.00;;;;;;;;6211715;22;46275;-93
2022/09/23 06:37:49;;;;;;;;;0.00;0.00;;;;;;;;6212066;22;45373;-89
2022/09/23 06:40:14;;;;;;;;;0.00;0.00;;;;;;;;6211416;22;45244;-89
2022/09/23 06:42:40;;;;;;;;;0.00;0.00;;;;;;;;6184032;22;45566;-91
2022/09/23 06:45:06;;;;;;;;;0.00;0.00;;;;;;;;6210790;22;46374;-91
2022/09/23 06:47:31;;;;;;;;;0.00;0.00;;;;;;;;6183135;22;45298;-91
2022/09/23 06:49:56;;;;;;;;;0.00;0.00;;;;;;;;6211406;22;45413;-92
2022/09/23 06:52:21;;;;;;;;;0.00;0.00;;;;;;;;6184283;22;45309;-91
2022/09/23 06:54:49;;;;;;;;;0.00;0.00;;;;;;;;6184481;22;47358;-92
2022/09/23 06:57:15;;;;;;;;;0.00;0.00;;;;;;;;6183355;22;45404;-92
2022/09/23 06:59:40;;;;;;;;;0.00;0.00;;;;;;;;6208018;22;45271;-93
2022/09/23 07:02:06;;;;;;;;;0.00;0.00;;;;;;;;6209536;22;45339;-92
2022/09/23 07:04:31;;;;;;;;;0.00;0.00;;;;;;;;6183085;22;47420;-90
2022/09/23 07:06:56;;;;;;;;;0.00;0.00;;;;;;;;6206135;22;45315;-90
2022/09/23 07:09:21;;;;;;;;;0.00;0.00;;;;;;;;6183770;22;45340;-90
2022/09/23 07:11:47;;;;;;;;;0.00;0.00;;;;;;;;6183701;22;45464;-92
2022/09/23 07:14:12;;;;;;;;;0.00;0.00;;;;;;;;6211271;22;45334;-92
2022/09/23 07:16:38;;;;;;;;;0.00;0.00;;;;;;;;6209029;22;45769;-92
2022/09/23 07:19:03;;;;;;;;;0.00;0.00;;;;;;;;6184583;22;45492;-92
2022/09/23 07:21:28;;;;;;;;;0.00;0.00;;;;;;;;6183237;22;45402;-91
2022/09/23 07:23:55;;;;;;;;;0.00;0.00;;;;;;;;6210315;22;45420;-92
2022/09/23 07:26:21;;;;;;;;;0.00;0.00;;;;;;;;6184719;22;45339;-92
2022/09/23 07:28:46;;;;;;;;;0.00;0.00;;;;;;;;6178278;23;45410;-88
2022/09/23 07:31:16;;;;;;;;;0.00;0.00;;;;;;;;6185867;23;45534;-94
2022/09/23 07:33:44;;;;;;;;;0.00;0.00;;;;;;;;6184860;23;45559;-89
2022/09/23 07:36:11;;;;;;;;;0.00;0.00;;;;;;;;6176956;23;45579;-89
2022/09/23 07:38:37;;;;;;;;;0.00;0.00;;;;;;;;6178745;23;45367;-89
2022/09/23 07:41:07;;;;;;;;;0.00;0.00;;;;;;;;6178847;23;45491;-88
2022/09/23 07:43:33;;;;;;;;;0.00;0.00;;;;;;;;6179457;23;45543;-89
2022/09/23 07:45:59;;;;;;;;;0.00;0.00;;;;;;;;6176791;23;45331;-88
2022/09/23 07:48:54;;;;;;;;;;;;;;;;;;;;;
2022/09/23 08:23:16;;;;;;;;;0.00;0.00;;;;;;;;6168480;22;46872;-96
2022/09/23 09:01:23;;;;;;;;;0.00;0.00;;;;;;;;5982514;23;46109;-96
2022/09/23 09:09:02;;;;;;;;;0.00;0.00;;;;;;;;6181791;22;46057;-93
2022/09/23 09:11:40;;;;;;;;;0.00;0.00;;;;;;;;6180743;23;46727;-94
2022/09/23 09:14:27;;;;;;;;;0.00;0.00;;;;;;;;6185488;23;45402;-95
2022/09/23 09:16:57;;;;;;;;;0.00;0.00;;;;;;;;6156656;23;45418;-93
2022/09/23 09:25:41;;;;;;;;;0.00;0.00;;;;;;;;6151411;23;45808;-94
2022/09/23 09:28:29;;;;;;;;;0.00;0.00;;;;;;;;6125580;23;45838;-93
2022/09/23 09:30:59;;;;;;;;;0.00;0.00;;;;;;;;6125118;23;45498;-94
2022/09/23 09:37:04;;;;;;;;;0.00;0.00;;;;;;;;6029118;23;45415;-93
2022/09/23 09:39:39;;;;;;;;;0.00;0.00;;;;;;;;6006532;23;45446;-93
2022/09/23 09:42:06;;;;;;;;;0.00;0.00;;;;;;;;6033406;23;45333;-94
2022/09/23 09:44:36;;;;;;;;;0.00;0.00;;;;;;;;6009447;23;47949;-93
2022/09/23 09:47:15;;;;;;;;;0.00;0.00;;;;;;;;6009483;23;45535;-94
2022/09/23 09:49:44;;;;;;;;;0.00;0.00;;;;;;;;6010422;23;45417;-94
2022/09/23 09:52:11;;;;;;;;;0.00;0.00;;;;;;;;6010483;23;45715;-92
2022/09/23 09:54:38;;;;;;;;;0.00;0.00;;;;;;;;6010081;23;47225;-93
2022/09/23 09:57:04;;;;;;;;;0.00;0.00;;;;;;;;6012899;23;45360;-93
2022/09/23 09:59:45;;;;;;;;;0.00;0.00;;;;;;;;6024034;23;45352;-94
2022/09/23 10:02:25;;;;;;;;;0.00;0.00;;;;;;;;6021730;23;45223;-94
2022/09/23 10:04:58;;;;;;;;;0.00;0.00;;;;;;;;6039187;23;48054;-94
2022/09/23 10:07:26;;;;;;;;;0.00;0.00;;;;;;;;6042182;23;45412;-95
2022/09/23 10:10:16;;;;;;;;;0.00;0.00;;;;;;;;6121786;22;44729;-93
2022/09/23 10:12:48;;;;;;;;;0.00;0.00;;;;;;;;6194422;22;45549;-96
2022/09/23 10:15:26;;;;;;;;;0.00;0.00;;;;;;;;6224821;22;45682;-95
2022/09/23 10:17:53;;;;;;;;;0.00;0.00;;;;;;;;6194876;22;45702;-96
2022/09/23 10:20:19;;;;;;;;;0.00;0.00;;;;;;;;6201746;22;45318;-96
2022/09/23 10:22:46;;;;;;;;;0.00;0.00;;;;;;;;6198450;22;45185;-96
2022/09/23 10:25:18;;;;;;;;;0.00;0.00;;;;;;;;6233214;22;45374;-96
2022/09/23 10:27:44;;;;;;;;;0.00;0.00;;;;;;;;6194537;22;45232;-94
2022/09/23 10:30:37;;;;;;;;;0.00;0.00;;;;;;;;6221515;22;45176;-96
2022/09/23 10:33:02;;;;;;;;;0.00;0.00;;;;;;;;6220884;22;45303;-96
2022/09/23 10:35:32;;;;;;;;;0.00;0.00;;;;;;;;6206684;22;47442;-93
2022/09/23 10:37:59;;;;;;;;;0.00;0.00;;;;;;;;6191614;23;45374;-95
2022/09/23 10:49:10;;;;;;;;;0.00;0.00;;;;;;;;6196577;22;45310;-91
2022/09/23 10:51:43;;;;;;;;;0.00;0.00;;;;;;;;6212102;22;45350;-91
2022/09/23 10:54:31;;;;;;;;;0.00;0.00;;;;;;;;6187248;22;45466;-92
2022/09/23 10:57:36;;;;;;;;;0.00;0.00;;;;;;;;6060835;23;46621;-94
2022/09/23 10:59:47;;;;;;;;;0.00;0.00;;;;;;;;6060756;23;45403;-95
2022/09/23 11:02:15;;;;;;;;;0.00;0.00;;;;;;;;6060754;23;45390;-96
2022/09/23 11:04:51;;;;;;;;;0.00;0.00;;;;;;;;6064843;23;45396;-95
2022/09/23 11:07:35;;;;;;;;;0.00;0.00;;;;;;;;6036599;23;47280;-93
2022/09/23 11:10:18;;;;;;;;;0.00;0.00;;;;;;;;6061289;23;46024;-93
2022/09/23 11:12:47;;;;;;;;;0.00;0.00;;;;;;;;6060060;23;45468;-94
2022/09/23 11:15:15;;;;;;;;;0.00;0.00;;;;;;;;6062395;23;45380;-94
2022/09/23 11:17:49;;;;;;;;;0.00;0.00;;;;;;;;6061825;23;46043;-94
2022/09/23 11:20:24;;;;;;;;;0.00;0.00;;;;;;;;6065152;23;45377;-95
2022/09/23 11:23:03;;;;;;;;;0.00;0.00;;;;;;;;6065126;23;45294;-93
2022/09/23 11:25:37;;;;;;;;;0.00;0.00;;;;;;;;6037777;23;45540;-92
2022/09/23 11:28:16;;;;;;;;;0.00;0.00;;;;;;;;6037781;23;47076;-94
2022/09/23 11:30:49;;;;;;;;;0.00;0.00;;;;;;;;6060063;23;46072;-94
2022/09/23 11:33:25;;;;;;;;;0.00;0.00;;;;;;;;6066520;22;45383;-93
2022/09/23 11:35:54;;;;;;;;;0.00;0.00;;;;;;;;6214767;22;45435;-93
2022/09/23 11:38:24;;;;;;;;;0.00;0.00;;;;;;;;6185549;22;47172;-93
2022/09/23 11:40:53;;;;;;;;;0.00;0.00;;;;;;;;6184463;22;45528;-92
2022/09/23 11:43:28;;;;;;;;;0.00;0.00;;;;;;;;6180556;23;45309;-93
2022/09/23 11:45:54;;;;;;;;;0.00;0.00;;;;;;;;6180695;23;45434;-94
2022/09/23 11:48:34;;;;;;;;;0.00;0.00;;;;;;;;6181980;23;48446;-94
2022/09/23 11:51:02;;;;;;;;;0.00;0.00;;;;;;;;6181748;23;45401;-94
2022/09/23 11:53:34;;;;;;;;;0.00;0.00;;;;;;;;6190299;23;45520;-93
2022/09/23 11:56:10;;;;;;;;;0.00;0.00;;;;;;;;6176257;23;45398;-89
2022/09/23 11:58:43;;;;;;;;;0.00;0.00;;;;;;;;6203464;22;47597;-89
2022/09/23 12:01:12;;;;;;;;;0.00;0.00;;;;;;;;6174877;23;45627;-91
2022/09/23 12:03:50;;;;;;;;;0.00;0.00;;;;;;;;6203315;22;45334;-92
2022/09/23 12:06:21;;;;;;;;;0.00;0.00;;;;;;;;6177228;23;45698;-92
2022/09/23 12:08:50;;;;;;;;;0.00;0.00;;;;;;;;6203813;22;48140;-91
2022/09/23 12:11:34;;;;;;;;;0.00;0.00;;;;;;;;6176786;23;45300;-91
2022/09/23 12:14:02;;;;;;;;;0.00;0.00;;;;;;;;6184362;23;45235;-90
2022/09/23 12:16:36;;;;;;;;;0.00;0.00;;;;;;;;6176501;23;45315;-93
2022/09/23 12:19:17;;;;;;;;;0.00;0.00;;;;;;;;6180562;23;46648;-91
2022/09/23 12:21:58;;;;;;;;;0.00;0.00;;;;;;;;6202651;22;45668;-92
2022/09/23 12:24:23;;;;;;;;;0.00;0.00;;;;;;;;6180171;23;45441;-91
2022/09/23 12:26:51;;;;;;;;;0.00;0.00;;;;;;;;6177091;23;45364;-91
2022/09/23 12:29:16;;;;;;;;;0.00;0.00;;;;;;;;6176900;23;46998;-91
2022/09/23 12:31:43;;;;;;;;;0.00;0.00;;;;;;;;6178095;23;45550;-91
2022/09/23 12:34:23;;;;;;;;;0.00;0.00;;;;;;;;6181569;23;45587;-90
2022/09/23 12:36:48;;;;;;;;;0.00;0.00;;;;;;;;6179675;23;45751;-90
2022/09/23 12:39:16;;;;;;;;;0.00;0.00;;;;;;;;6177201;23;47291;-90
2022/09/23 12:41:42;;;;;;;;;0.00;0.00;;;;;;;;6182108;22;45355;-89
2022/09/23 12:44:13;;;;;;;;;0.00;0.00;;;;;;;;6210565;22;45523;-89
2022/09/23 12:46:45;;;;;;;;;0.00;0.00;;;;;;;;6206008;22;45832;-90
2022/09/23 12:49:24;;;;;;;;;0.00;0.00;;;;;;;;6182306;22;47266;-88
2022/09/23 12:52:08;;;;;;;;;0.00;0.00;;;;;;;;6181804;22;46044;-90
2022/09/23 12:54:33;;;;;;;;;0.00;0.00;;;;;;;;6183049;22;45212;-91
2022/09/23 12:56:59;;;;;;;;;0.00;0.00;;;;;;;;6209937;22;45370;-89
2022/09/23 12:59:24;;;;;;;;;0.00;0.00;;;;;;;;6182312;22;46808;-89
2022/09/23 13:01:49;;;;;;;;;0.00;0.00;;;;;;;;6208523;22;45318;-90
2022/09/23 13:07:26;;;;;;;;;0.00;0.00;;;;;;;;6057801;23;45432;-90
2022/09/23 13:09:54;;;;;;;;;0.00;0.00;;;;;;;;6058752;23;45956;-89
2022/09/23 13:12:23;;;;;;;;;0.00;0.00;;;;;;;;6034070;23;46020;-90
2022/09/23 13:14:50;;;;;;;;;0.00;0.00;;;;;;;;6058632;23;45489;-91
2022/09/23 13:17:24;;;;;;;;;0.00;0.00;;;;;;;;6051625;23;45581;-90
2022/09/23 13:19:57;;;;;;;;;0.00;0.00;;;;;;;;6057424;23;47232;-90
2022/09/23 13:22:41;;;;;;;;;0.00;0.00;;;;;;;;6035017;23;45464;-90
2022/09/23 13:25:15;;;;;;;;;0.00;0.00;;;;;;;;6058245;23;45539;-90
2022/09/23 13:27:42;;;;;;;;;0.00;0.00;;;;;;;;6056325;23;45582;-89
2022/09/23 13:30:12;;;;;;;;;0.00;0.00;;;;;;;;6033555;23;47865;-89
2022/09/23 13:32:39;;;;;;;;;0.00;0.00;;;;;;;;6056052;23;45366;-91
2022/09/23 13:35:15;;;;;;;;;0.00;0.00;;;;;;;;6059341;23;45507;-90
2022/09/23 13:37:42;;;;;;;;;0.00;0.00;;;;;;;;6029671;23;45490;-90
2022/09/23 13:40:16;;;;;;;;;0.00;0.00;;;;;;;;6031878;23;48148;-90
2022/09/23 13:42:43;;;;;;;;;0.00;0.00;;;;;;;;6055780;23;45574;-89
2022/09/23 13:45:16;;;;;;;;;0.00;0.00;;;;;;;;6207717;22;45331;-90
2022/09/23 13:47:43;;;;;;;;;0.00;0.00;;;;;;;;6180789;22;45842;-90
2022/09/23 13:50:15;;;;;;;;;0.00;0.00;;;;;;;;6182046;22;47893;-92
2022/09/23 13:52:40;;;;;;;;;0.00;0.00;;;;;;;;6182149;22;45623;-94
2022/09/23 13:55:22;;;;;;;;;0.00;0.00;;;;;;;;6181968;22;45329;-88
2022/09/23 13:57:55;;;;;;;;;0.00;0.00;;;;;;;;6182996;22;45512;-92
2022/09/23 14:00:22;;;;;;;;;0.00;0.00;;;;;;;;6184763;22;47234;-92
2022/09/23 14:02:47;;;;;;;;;0.00;0.00;;;;;;;;6182412;22;45646;-89
2022/09/23 14:05:20;;;;;;;;;0.00;0.00;;;;;;;;6183508;22;45304;-89
2022/09/23 14:07:45;;;;;;;;;0.00;0.00;;;;;;;;6209663;22;45357;-91
2022/09/23 14:10:15;;;;;;;;;0.00;0.00;;;;;;;;6209830;22;46660;-92
2022/09/23 14:12:40;;;;;;;;;0.00;0.00;;;;;;;;6209929;22;45357;-91
2022/09/23 14:15:12;;;;;;;;;0.00;0.00;;;;;;;;6182785;22;45657;-90
2022/09/23 14:17:37;;;;;;;;;0.00;0.00;;;;;;;;6181993;22;45393;-91
2022/09/23 14:20:02;;;;;;;;;0.00;0.00;;;;;;;;6183610;22;47375;-90
2022/09/23 14:22:28;;;;;;;;;0.00;0.00;;;;;;;;6187051;22;45917;-96
2022/09/23 14:24:54;;;;;;;;;0.00;0.00;;;;;;;;6188051;22;45374;-93
2022/09/23 14:27:28;;;;;;;;;0.00;0.00;;;;;;;;6195263;22;45307;-95
2022/09/23 14:29:56;;;;;;;;;0.00;0.00;;;;;;;;6191159;22;46112;-96
2022/09/23 14:32:23;;;;;;;;;0.00;0.00;;;;;;;;6199106;22;45430;-96
2022/09/23 14:35:03;;;;;;;;;0.00;0.00;;;;;;;;6214325;22;45392;-90
2022/09/23 14:40:27;;;;;;;;;0.00;0.00;;;;;;;;6211304;22;45878;-89
2022/09/23 14:42:57;;;;;;;;;0.00;0.00;;;;;;;;6211811;22;45569;-89
2022/09/23 14:47:59;;;;;;;;;0.00;0.00;;;;;;;;6187734;22;45906;-94
2022/09/23 14:53:00;;;;;;;;;0.00;0.00;;;;;;;;6180891;22;45834;-95
2022/09/23 15:03:14;;;;;;;;;0.00;0.00;;;;;;;;6162844;22;45291;-94
2022/09/23 15:05:45;;;;;;;;;0.00;0.00;;;;;;;;6130493;23;45356;-91
2022/09/23 15:08:13;;;;;;;;;0.00;0.00;;;;;;;;6176339;23;45260;-90
2022/09/23 15:10:38;;;;;;;;;0.00;0.00;;;;;;;;6155626;23;47062;-93
2022/09/23 15:13:10;;;;;;;;;0.00;0.00;;;;;;;;6178105;23;45766;-92
2022/09/23 15:15:35;;;;;;;;;0.00;0.00;;;;;;;;6178157;23;45736;-93
2022/09/23 15:18:05;;;;;;;;;0.00;0.00;;;;;;;;6154296;23;45450;-94
2022/09/23 15:20:31;;;;;;;;;0.00;0.00;;;;;;;;6156740;23;47394;-93
2022/09/23 15:22:56;;;;;;;;;0.00;0.00;;;;;;;;6155114;23;45988;-92
2022/09/23 15:25:54;;;;;;;;;0.00;0.00;;;;;;;;6180961;23;45244;-93
2022/09/23 15:28:22;;;;;;;;;0.00;0.00;;;;;;;;6030259;23;45433;-93
2022/09/23 15:30:49;;;;;;;;;0.00;0.00;;;;;;;;6027359;23;48538;-93
2022/09/23 15:33:15;;;;;;;;;0.00;0.00;;;;;;;;6031025;23;45333;-94
2022/09/23 15:35:45;;;;;;;;;0.00;0.00;;;;;;;;6029872;23;45381;-93
2022/09/23 15:38:10;;;;;;;;;0.00;0.00;;;;;;;;6030429;23;45683;-92
2022/09/23 15:40:36;;;;;;;;;0.00;0.00;;;;;;;;6029464;23;46955;-93
2022/09/23 15:43:09;;;;;;;;;0.00;0.00;;;;;;;;6027219;23;45768;-91
2022/09/23 15:45:42;;;;;;;;;0.00;0.00;;;;;;;;6028879;23;45770;-92
2022/09/23 15:48:12;;;;;;;;;0.00;0.00;;;;;;;;6029549;23;45951;-92
2022/09/23 15:50:38;;;;;;;;;0.00;0.00;;;;;;;;6029845;23;47046;-96
2022/09/23 15:53:05;;;;;;;;;0.00;0.00;;;;;;;;6030862;23;45803;-93
2022/09/23 15:55:30;;;;;;;;;0.00;0.00;;;;;;;;6030358;23;45369;-92
2022/09/23 15:57:56;;;;;;;;;0.00;0.00;;;;;;;;6029842;23;45677;-92
2022/09/23 16:00:21;;;;;;;;;0.00;0.00;;;;;;;;6030513;23;46856;-93
2022/09/23 16:02:47;;;;;;;;;0.00;0.00;;;;;;;;6033221;23;45476;-93
2022/09/23 16:05:29;;;;;;;;;0.00;0.00;;;;;;;;6183954;22;45288;-93
2022/09/23 16:07:54;;;;;;;;;0.00;0.00;;;;;;;;6183697;22;45545;-92
2022/09/23 16:10:20;;;;;;;;;0.00;0.00;;;;;;;;6208346;22;47919;-91
2022/09/23 16:12:46;;;;;;;;;0.00;0.00;;;;;;;;6183328;22;45973;-92
2022/09/23 16:15:18;;;;;;;;;0.00;0.00;;;;;;;;6183440;22;45339;-91
2022/09/23 16:17:44;;;;;;;;;0.00;0.00;;;;;;;;6183413;22;45326;-92
2022/09/23 16:20:10;;;;;;;;;0.00;0.00;;;;;;;;6206540;22;47093;-93
2022/09/23 16:22:35;;;;;;;;;0.00;0.00;;;;;;;;6182972;22;45643;-92
2022/09/23 16:25:01;;;;;;;;;0.00;0.00;;;;;;;;6209998;22;45422;-93
2022/09/23 16:27:26;;;;;;;;;0.00;0.00;;;;;;;;6183520;22;45247;-92
2022/09/23 16:29:51;;;;;;;;;0.00;0.00;;;;;;;;6214166;22;46929;-95
2022/09/23 16:32:18;;;;;;;;;0.00;0.00;;;;;;;;6219334;22;45895;-96
2022/09/23 16:34:45;;;;;;;;;0.00;0.00;;;;;;;;6210870;22;45512;-92
2022/09/23 17:06:06;;;;;;;;;0.00;0.00;;;;;;;;6175078;22;46295;-95
2022/09/23 17:11:07;;;;;;;;;0.00;0.00;;;;;;;;6175775;22;46325;-94
2022/09/23 17:18:44;;;;;;;;;0.00;0.00;;;;;;;;6176450;22;45759;-95
2022/09/23 17:26:22;;;;;;;;;0.00;0.00;;;;;;;;6183203;22;46194;-96
2022/09/23 17:28:47;;;;;;;;;0.00;0.00;;;;;;;;6172384;23;45203;-96
2022/09/23 17:31:12;;;;;;;;;0.00;0.00;;;;;;;;6175289;23;47244;-96
2022/09/23 17:33:44;;;;;;;;;0.00;0.00;;;;;;;;6180090;23;45319;-96
2022/09/23 17:36:15;;;;;;;;;0.00;0.00;;;;;;;;6199485;23;44627;-96
2022/09/23 17:39:08;;;;;;;;;0.00;0.00;;;;;;;;6177549;23;44847;-96
2022/09/23 17:41:33;;;;;;;;;0.00;0.00;;;;;;;;6177451;23;47016;-96
2022/09/23 17:43:59;;;;;;;;;0.00;0.00;;;;;;;;6175156;23;44867;-96
2022/09/23 17:46:28;;;;;;;;;0.00;0.00;;;;;;;;6172815;23;44889;-96
2022/09/23 17:48:57;;;;;;;;;0.00;0.00;;;;;;;;6200595;23;44758;-96
2022/09/23 17:51:55;;;;;;;;;0.00;0.00;;;;;;;;6182424;23;47161;-96
2022/09/23 17:56:59;;;;;;;;;0.00;0.00;;;;;;;;6200533;22;44702;-96
2022/09/23 17:59:25;;;;;;;;;0.00;0.00;;;;;;;;6183061;22;44922;-96
2022/09/23 18:02:32;;;;;;;;;0.00;0.00;;;;;;;;6242537;22;46658;-96
2022/09/23 18:05:24;;;;;;;;;0.00;0.00;;;;;;;;6148181;23;44799;-96
2022/09/23 18:13:17;;;;;;;;;0.00;0.00;;;;;;;;6197680;22;46112;-95
2022/09/23 18:15:42;;;;;;;;;0.00;0.00;;;;;;;;6167863;23;45492;-96
2022/09/23 18:18:07;;;;;;;;;0.00;0.00;;;;;;;;6161700;23;45233;-96
2022/09/23 18:20:33;;;;;;;;;0.00;0.00;;;;;;;;6156783;22;45419;-96
2022/09/23 18:51:35;;;;;;;;;0.00;0.00;;;;;;;;6196077;22;45137;-96
2022/09/23 18:54:03;;;;;;;;;0.00;0.00;;;;;;;;6178264;23;46288;-96
2022/09/23 18:56:32;;;;;;;;;0.00;0.00;;;;;;;;6179567;23;45199;-95
2022/09/23 18:58:57;;;;;;;;;0.00;0.00;;;;;;;;6182664;23;44630;-96
2022/09/23 19:01:23;;;;;;;;;0.00;0.00;;;;;;;;6170256;23;44798;-96
2022/09/23 19:03:53;;;;;;;;;0.00;0.00;;;;;;;;6173347;23;47436;-96
2022/09/23 19:06:18;;;;;;;;;0.00;0.00;;;;;;;;6163233;23;45267;-96
2022/09/23 19:08:48;;;;;;;;;0.00;0.00;;;;;;;;6176984;22;46366;-95
2022/09/23 19:11:14;;;;;;;;;0.00;0.00;;;;;;;;6129365;23;45339;-96
2022/09/23 19:13:39;;;;;;;;;0.00;0.00;;;;;;;;6157622;23;46036;-96
2022/09/23 19:16:10;;;;;;;;;0.00;0.00;;;;;;;;6104889;23;45273;-94
2022/09/23 19:18:37;;;;;;;;;0.00;0.00;;;;;;;;6155478;23;45345;-94
2022/09/23 19:21:03;;;;;;;;;0.00;0.00;;;;;;;;6127982;23;45365;-96
2022/09/23 19:23:30;;;;;;;;;0.00;0.00;;;;;;;;6154667;23;46490;-95
2022/09/23 19:25:59;;;;;;;;;0.00;0.00;;;;;;;;6126910;23;45344;-95
2022/09/23 19:28:27;;;;;;;;;0.00;0.00;;;;;;;;6128275;23;45356;-94
2022/09/23 19:30:53;;;;;;;;;0.00;0.00;;;;;;;;6133334;23;45267;-96
2022/09/23 19:33:19;;;;;;;;;0.00;0.00;;;;;;;;6145957;23;48282;-95
2022/09/23 19:35:46;;;;;;;;;0.00;0.00;;;;;;;;6132690;23;45204;-95
2022/09/23 19:38:11;;;;;;;;;0.00;0.00;;;;;;;;6131835;23;45610;-95
2022/09/23 19:40:37;;;;;;;;;0.00;0.00;;;;;;;;6127967;23;45581;-95
2022/09/23 19:43:03;;;;;;;;;0.00;0.00;;;;;;;;6133535;23;48949;-96
2022/09/23 19:45:31;;;;;;;;;0.00;0.00;;;;;;;;6131903;23;45260;-96
2022/09/23 19:47:57;;;;;;;;;0.00;0.00;;;;;;;;6132236;23;45331;-95
2022/09/23 19:50:22;;;;;;;;;0.00;0.00;;;;;;;;6156663;23;45290;-94
2022/09/23 19:52:50;;;;;;;;;0.00;0.00;;;;;;;;6157367;23;45612;-95
2022/09/23 19:55:17;;;;;;;;;0.00;0.00;;;;;;;;6130877;23;45428;-96
2022/09/23 19:57:42;;;;;;;;;0.00;0.00;;;;;;;;6129447;23;45330;-96
2022/09/23 20:00:07;;;;;;;;;0.00;0.00;;;;;;;;6128261;23;45269;-94
2022/09/23 20:02:33;;;;;;;;;0.00;0.00;;;;;;;;6153319;23;46811;-95
2022/09/23 20:04:58;;;;;;;;;0.00;0.00;;;;;;;;6128069;23;45617;-96
2022/09/23 20:07:23;;;;;;;;;0.00;0.00;;;;;;;;6154677;23;45367;-96
2022/09/23 20:09:48;;;;;;;;;0.00;0.00;;;;;;;;6167362;23;45684;-96
2022/09/23 20:12:14;;;;;;;;;0.00;0.00;;;;;;;;6183903;23;46211;-96
2022/09/23 20:14:39;;;;;;;;;0.00;0.00;;;;;;;;6181021;23;45409;-96
2022/09/23 20:17:04;;;;;;;;;0.00;0.00;;;;;;;;6182839;23;45280;-96
2022/09/23 20:19:31;;;;;;;;;0.00;0.00;;;;;;;;6184087;23;45292;-95
2022/09/23 20:24:40;;;;;;;;;0.00;0.00;;;;;;;;6187405;23;45395;-94
2022/09/23 20:27:09;;;;;;;;;0.00;0.00;;;;;;;;6184979;23;45340;-94
2022/09/23 20:29:35;;;;;;;;;0.00;0.00;;;;;;;;6184907;23;45273;-95
2022/09/23 20:32:00;;;;;;;;;0.00;0.00;;;;;;;;6158059;23;47041;-95
2022/09/23 20:34:28;;;;;;;;;0.00;0.00;;;;;;;;6183445;23;45631;-95
2022/09/23 20:36:54;;;;;;;;;0.00;0.00;;;;;;;;6183971;23;45320;-95
2022/09/23 20:39:19;;;;;;;;;0.00;0.00;;;;;;;;6160422;23;45305;-96
2022/09/23 20:41:47;;;;;;;;;0.00;0.00;;;;;;;;6193053;22;47354;-96
2022/09/23 20:44:13;;;;;;;;;0.00;0.00;;;;;;;;6169546;22;46169;-96
2022/09/23 20:46:39;;;;;;;;;0.00;0.00;;;;;;;;6197070;22;45127;-95
2022/09/23 20:49:07;;;;;;;;;0.00;0.00;;;;;;;;6220813;22;45148;-95
2022/09/23 20:51:34;;;;;;;;;0.00;0.00;;;;;;;;6171161;22;46715;-96
2022/09/23 20:54:04;;;;;;;;;0.00;0.00;;;;;;;;6220887;22;44836;-95
2022/09/23 21:01:37;;;;;;;;;0.00;0.00;;;;;;;;6181372;22;46102;-90
2022/09/23 21:04:03;;;;;;;;;0.00;0.00;;;;;;;;6154615;23;45806;-91
2022/09/23 21:06:29;;;;;;;;;0.00;0.00;;;;;;;;6179777;23;45367;-94
2022/09/23 21:08:55;;;;;;;;;0.00;0.00;;;;;;;;6152446;23;45451;-90
2022/09/23 21:11:20;;;;;;;;;0.00;0.00;;;;;;;;6152301;23;47950;-91
2022/09/23 21:13:46;;;;;;;;;0.00;0.00;;;;;;;;6180586;23;45308;-90
2022/09/23 21:16:14;;;;;;;;;0.00;0.00;;;;;;;;6150371;23;45452;-91
2022/09/23 21:18:39;;;;;;;;;0.00;0.00;;;;;;;;6152401;23;45398;-91
2022/09/23 21:21:05;;;;;;;;;0.00;0.00;;;;;;;;6206232;22;48154;-95
2022/09/23 21:23:32;;;;;;;;;0.00;0.00;;;;;;;;6156425;23;45162;-95
2022/09/23 21:26:01;;;;;;;;;0.00;0.00;;;;;;;;6155493;23;45462;-96
2022/09/23 21:28:30;;;;;;;;;0.00;0.00;;;;;;;;6156530;23;45471;-96
2022/09/23 21:30:56;;;;;;;;;0.00;0.00;;;;;;;;6155409;23;47124;-96
2022/09/23 21:33:22;;;;;;;;;0.00;0.00;;;;;;;;6157520;23;45326;-96
2022/09/23 21:35:51;;;;;;;;;0.00;0.00;;;;;;;;6156376;23;45204;-96
2022/09/23 21:38:16;;;;;;;;;0.00;0.00;;;;;;;;6158594;23;45318;-96
2022/09/23 21:40:57;;;;;;;;;0.00;0.00;;;;;;;;6155589;23;45638;-95
2022/09/23 21:43:23;;;;;;;;;0.00;0.00;;;;;;;;6156313;23;45434;-95
2022/09/23 21:45:48;;;;;;;;;0.00;0.00;;;;;;;;6155396;23;45354;-96
2022/09/23 21:48:14;;;;;;;;;0.00;0.00;;;;;;;;6156626;23;45366;-96
2022/09/23 21:50:40;;;;;;;;;0.00;0.00;;;;;;;;6156431;23;47334;-95
2022/09/23 21:53:06;;;;;;;;;0.00;0.00;;;;;;;;6156320;23;45516;-96
2022/09/23 21:55:31;;;;;;;;;0.00;0.00;;;;;;;;6157930;23;45425;-95
2022/09/23 21:57:56;;;;;;;;;0.00;0.00;;;;;;;;6157917;23;45300;-96
2022/09/23 22:00:22;;;;;;;;;0.00;0.00;;;;;;;;6159001;23;46997;-96
2022/09/23 22:02:47;;;;;;;;;0.00;0.00;;;;;;;;6163375;23;45188;-96
2022/09/23 22:05:13;;;;;;;;;0.00;0.00;;;;;;;;6160079;23;45979;-95
2022/09/23 22:07:38;;;;;;;;;0.00;0.00;;;;;;;;6159884;23;45274;-96
2022/09/23 22:10:04;;;;;;;;;0.00;0.00;;;;;;;;6159459;23;48068;-96
2022/09/23 22:12:31;;;;;;;;;0.00;0.00;;;;;;;;6158376;23;45201;-96
2022/09/23 22:14:56;;;;;;;;;0.00;0.00;;;;;;;;6159175;23;45407;-96
2022/09/23 22:17:22;;;;;;;;;0.00;0.00;;;;;;;;6160979;23;45283;-96
2022/09/23 22:19:48;;;;;;;;;7.00;7.00;;;;;;;;6157854;23;47220;-95
2022/09/23 22:22:14;;;;;;;;;0.00;0.00;;;;;;;;6157963;23;45782;-96
2022/09/23 22:24:40;;;;;;;;;0.00;0.00;;;;;;;;6159266;23;45290;-96
2022/09/23 22:27:08;;;;;;;;;0.00;0.00;;;;;;;;6158630;23;45632;-96
2022/09/23 22:35:02;;;;;;;;;0.00;0.00;;;;;;;;6186003;23;45297;-96
2022/09/23 22:37:29;;;;;;;;;0.00;0.00;;;;;;;;6158192;23;45250;-96
2022/09/23 22:39:54;;;;;;;;;0.00;0.00;;;;;;;;6157582;23;48370;-96
2022/09/23 22:42:22;;;;;;;;;0.00;0.00;;;;;;;;6157769;23;45208;-96
2022/09/23 22:44:48;;;;;;;;;0.00;0.00;;;;;;;;6158062;23;45394;-96
2022/09/23 22:47:13;;;;;;;;;0.00;0.00;;;;;;;;6157262;23;45425;-96
2022/09/23 22:49:39;;;;;;;;;0.00;0.00;;;;;;;;6157737;23;47024;-96
2022/09/23 22:52:10;;;;;;;;;0.00;0.00;;;;;;;;6157403;23;45326;-96
2022/09/23 22:54:35;;;;;;;;;0.00;0.00;;;;;;;;6158812;23;45295;-96
2022/09/23 22:57:04;;;;;;;;;0.00;0.00;;;;;;;;6158347;23;45389;-96
2022/09/23 22:59:29;;;;;;;;;0.00;0.00;;;;;;;;6157605;23;48753;-96
2022/09/23 23:01:55;;;;;;;;;0.00;0.00;;;;;;;;6157173;23;45757;-96
2022/09/23 23:04:20;;;;;;;;;0.00;0.00;;;;;;;;6157901;23;45487;-96
2022/09/23 23:06:46;;;;;;;;;0.00;0.00;;;;;;;;6157672;23;45419;-95
2022/09/23 23:09:15;;;;;;;;;0.00;0.00;;;;;;;;6157516;23;47375;-96
2022/09/23 23:11:41;;;;;;;;;0.00;0.00;;;;;;;;6157376;23;45690;-96
2022/09/23 23:14:07;;;;;;;;;0.00;0.00;;;;;;;;6157803;23;45486;-96
2022/09/23 23:16:35;;;;;;;;;0.00;0.00;;;;;;;;6157332;23;45353;-96
2022/09/23 23:19:08;;;;;;;;;0.00;0.00;;;;;;;;6157543;23;47094;-96
2022/09/23 23:21:34;;;;;;;;;0.00;0.00;;;;;;;;6157402;23;45474;-96
2022/09/23 23:23:59;;;;;;;;;0.00;0.00;;;;;;;;6157621;23;45393;-96
2022/09/23 23:26:26;;;;;;;;;1.00;1.00;;;;;;;;6157962;23;45432;-96
2022/09/23 23:28:52;;;;;;;;;0.00;0.00;;;;;;;;6157347;23;47305;-95
2022/09/23 23:31:18;;;;;;;;;0.00;0.00;;;;;;;;6157056;23;46100;-95
2022/09/23 23:33:44;;;;;;;;;0.00;0.00;;;;;;;;6158268;23;45319;-96
2022/09/23 23:36:11;;;;;;;;;1.00;1.00;;;;;;;;6159212;23;45470;-96
2022/09/23 23:38:37;;;;;;;;;0.00;0.00;;;;;;;;6158643;23;46977;-96
2022/09/23 23:41:03;;;;;;;;;0.00;0.00;;;;;;;;6158824;23;45387;-96
2022/09/23 23:43:29;;;;;;;;;0.00;0.00;;;;;;;;6158136;23;44734;-96
2022/09/23 23:45:56;;;;;;;;;0.00;0.00;;;;;;;;6157517;23;45291;-96
2022/09/23 23:48:21;;;;;;;;;0.00;0.00;;;;;;;;6158236;23;47029;-95
2022/09/23 23:50:53;;;;;;;;;0.00;0.00;;;;;;;;6158117;23;45389;-96
2022/09/23 23:53:18;;;;;;;;;0.00;0.00;;;;;;;;6158389;23;45631;-96
2022/09/23 23:55:44;;;;;;;;;0.00;0.00;;;;;;;;6158186;23;45331;-96
2022/09/23 23:58:09;;;;;;;;;0.00;0.00;;;;;;;;6157622;23;46929;-96
